sensor_id;sensor_type;location;lat;lon;timestamp;P1;durP1;ratioP1;P2;durP2;ratioP2
68108;SDS011;54893;49.864;19.084;2022-10-16T00:02:35;13.20;;;7.17;;
68108;SDS011;54893;49.864;19.084;2022-10-16T00:07:35;14.63;;;8.53;;
68108;SDS011;54893;49.864;19.084;2022-10-16T00:12:35;12.90;;;7.20;;
68108;SDS011;54893;49.864;19.084;2022-10-16T00:17:36;16.73;;;7.77;;
68108;SDS011;54893;49.864;19.084;2022-10-16T00:22:36;15.15;;;7.18;;
68108;SDS011;54893;49.864;19.084;2022-10-16T00:27:37;17.33;;;7.53;;
68108;SDS011;54893;49.864;19.084;2022-10-16T00:32:37;16.67;;;8.07;;
68108;SDS011;54893;49.864;19.084;2022-10-16T00:37:37;13.37;;;7.70;;
68108;SDS011;54893;49.864;19.084;2022-10-16T00:42:38;17.60;;;8.70;;
68108;SDS011;54893;49.864;19.084;2022-10-16T00:47:39;13.67;;;7.23;;
68108;SDS011;54893;49.864;19.084;2022-10-16T00:52:43;14.45;;;7.18;;
68108;SDS011;54893;49.864;19.084;2022-10-16T00:57:46;15.90;;;7.73;;
68108;SDS011;54893;49.864;19.084;2022-10-16T01:03:00;13.75;;;7.13;;
68108;SDS011;54893;49.864;19.084;2022-10-16T01:08:08;13.55;;;7.60;;
68108;SDS011;54893;49.864;19.084;2022-10-16T01:13:48;14.90;;;8.00;;
68108;SDS011;54893;49.864;19.084;2022-10-16T01:18:54;14.75;;;7.13;;
68108;SDS011;54893;49.864;19.084;2022-10-16T01:24:28;15.10;;;7.90;;
68108;SDS011;54893;49.864;19.084;2022-10-16T01:29:37;14.02;;;7.85;;
68108;SDS011;54893;49.864;19.084;2022-10-16T01:34:52;13.63;;;7.38;;
68108;SDS011;54893;49.864;19.084;2022-10-16T01:39:57;14.73;;;7.90;;
68108;SDS011;54893;49.864;19.084;2022-10-16T01:45:00;14.73;;;7.40;;
68108;SDS011;54893;49.864;19.084;2022-10-16T01:50:03;13.43;;;7.20;;
68108;SDS011;54893;49.864;19.084;2022-10-16T01:55:06;16.40;;;8.70;;
68108;SDS011;54893;49.864;19.084;2022-10-16T02:00:10;16.48;;;8.93;;
68108;SDS011;54893;49.864;19.084;2022-10-16T02:05:18;16.37;;;7.93;;
68108;SDS011;54893;49.864;19.084;2022-10-16T02:10:24;17.73;;;8.10;;
68108;SDS011;54893;49.864;19.084;2022-10-16T02:15:25;15.87;;;7.70;;
68108;SDS011;54893;49.864;19.084;2022-10-16T02:20:27;14.97;;;7.70;;
68108;SDS011;54893;49.864;19.084;2022-10-16T02:25:30;17.52;;;9.07;;
68108;SDS011;54893;49.864;19.084;2022-10-16T02:31:07;15.95;;;8.50;;
68108;SDS011;54893;49.864;19.084;2022-10-16T02:36:02;17.90;;;8.00;;
68108;SDS011;54893;49.864;19.084;2022-10-16T02:41:04;16.03;;;8.60;;
68108;SDS011;54893;49.864;19.084;2022-10-16T02:46:05;17.38;;;8.75;;
68108;SDS011;54893;49.864;19.084;2022-10-16T02:51:06;17.90;;;8.53;;
68108;SDS011;54893;49.864;19.084;2022-10-16T02:56:06;19.80;;;9.23;;
68108;SDS011;54893;49.864;19.084;2022-10-16T03:01:07;21.20;;;8.88;;
68108;SDS011;54893;49.864;19.084;2022-10-16T03:06:07;15.53;;;8.47;;
68108;SDS011;54893;49.864;19.084;2022-10-16T03:11:08;19.77;;;8.57;;
68108;SDS011;54893;49.864;19.084;2022-10-16T03:16:08;17.20;;;9.00;;
68108;SDS011;54893;49.864;19.084;2022-10-16T03:21:09;17.57;;;9.20;;
68108;SDS011;54893;49.864;19.084;2022-10-16T03:26:09;18.92;;;9.27;;
68108;SDS011;54893;49.864;19.084;2022-10-16T03:31:09;18.47;;;9.43;;
68108;SDS011;54893;49.864;19.084;2022-10-16T03:36:10;19.63;;;9.43;;
68108;SDS011;54893;49.864;19.084;2022-10-16T03:41:10;18.13;;;9.87;;
68108;SDS011;54893;49.864;19.084;2022-10-16T03:46:11;20.77;;;9.88;;
68108;SDS011;54893;49.864;19.084;2022-10-16T03:51:11;19.33;;;9.00;;
68108;SDS011;54893;49.864;19.084;2022-10-16T03:56:11;19.90;;;9.25;;
68108;SDS011;54893;49.864;19.084;2022-10-16T04:01:13;20.02;;;9.23;;
68108;SDS011;54893;49.864;19.084;2022-10-16T04:06:14;20.00;;;9.77;;
68108;SDS011;54893;49.864;19.084;2022-10-16T04:11:15;17.73;;;8.40;;
68108;SDS011;54893;49.864;19.084;2022-10-16T04:16:15;20.00;;;9.10;;
68108;SDS011;54893;49.864;19.084;2022-10-16T04:21:16;20.83;;;8.40;;
68108;SDS011;54893;49.864;19.084;2022-10-16T04:26:16;17.45;;;8.35;;
68108;SDS011;54893;49.864;19.084;2022-10-16T04:31:17;16.10;;;8.67;;
68108;SDS011;54893;49.864;19.084;2022-10-16T04:36:17;15.03;;;7.30;;
68108;SDS011;54893;49.864;19.084;2022-10-16T04:41:17;23.20;;;9.27;;
68108;SDS011;54893;49.864;19.084;2022-10-16T04:46:18;16.87;;;8.23;;
68108;SDS011;54893;49.864;19.084;2022-10-16T04:51:18;13.97;;;7.40;;
68108;SDS011;54893;49.864;19.084;2022-10-16T04:56:19;14.87;;;7.17;;
68108;SDS011;54893;49.864;19.084;2022-10-16T05:01:20;12.63;;;7.20;;
68108;SDS011;54893;49.864;19.084;2022-10-16T05:06:20;14.20;;;6.83;;
68108;SDS011;54893;49.864;19.084;2022-10-16T05:11:21;13.70;;;6.63;;
68108;SDS011;54893;49.864;19.084;2022-10-16T05:16:21;13.85;;;7.53;;
68108;SDS011;54893;49.864;19.084;2022-10-16T05:21:22;14.85;;;7.38;;
68108;SDS011;54893;49.864;19.084;2022-10-16T05:26:22;10.85;;;5.70;;
68108;SDS011;54893;49.864;19.084;2022-10-16T05:31:23;17.17;;;7.43;;
68108;SDS011;54893;49.864;19.084;2022-10-16T05:36:23;14.87;;;7.17;;
68108;SDS011;54893;49.864;19.084;2022-10-16T05:41:23;13.30;;;6.53;;
68108;SDS011;54893;49.864;19.084;2022-10-16T05:46:26;14.63;;;6.97;;
68108;SDS011;54893;49.864;19.084;2022-10-16T05:51:26;14.23;;;6.73;;
68108;SDS011;54893;49.864;19.084;2022-10-16T05:56:26;15.05;;;7.80;;
68108;SDS011;54893;49.864;19.084;2022-10-16T06:01:27;14.17;;;7.50;;
68108;SDS011;54893;49.864;19.084;2022-10-16T06:06:27;13.15;;;6.95;;
68108;SDS011;54893;49.864;19.084;2022-10-16T06:11:29;20.33;;;7.77;;
68108;SDS011;54893;49.864;19.084;2022-10-16T06:16:30;15.13;;;7.60;;
68108;SDS011;54893;49.864;19.084;2022-10-16T06:21:31;15.00;;;7.83;;
68108;SDS011;54893;49.864;19.084;2022-10-16T06:26:31;15.30;;;7.37;;
68108;SDS011;54893;49.864;19.084;2022-10-16T06:31:32;15.33;;;7.30;;
68108;SDS011;54893;49.864;19.084;2022-10-16T06:36:33;13.52;;;6.47;;
68108;SDS011;54893;49.864;19.084;2022-10-16T06:41:33;12.90;;;6.73;;
68108;SDS011;54893;49.864;19.084;2022-10-16T06:46:34;12.20;;;6.70;;
68108;SDS011;54893;49.864;19.084;2022-10-16T06:51:35;14.67;;;6.80;;
68108;SDS011;54893;49.864;19.084;2022-10-16T06:56:36;10.27;;;6.15;;
68108;SDS011;54893;49.864;19.084;2022-10-16T07:01:37;17.10;;;6.97;;
68108;SDS011;54893;49.864;19.084;2022-10-16T07:06:37;12.40;;;7.00;;
68108;SDS011;54893;49.864;19.084;2022-10-16T07:11:38;12.73;;;7.70;;
68108;SDS011;54893;49.864;19.084;2022-10-16T07:16:39;12.15;;;6.97;;
68108;SDS011;54893;49.864;19.084;2022-10-16T07:21:40;11.80;;;6.20;;
68108;SDS011;54893;49.864;19.084;2022-10-16T07:26:41;10.97;;;6.20;;
68108;SDS011;54893;49.864;19.084;2022-10-16T07:31:44;11.30;;;6.47;;
68108;SDS011;54893;49.864;19.084;2022-10-16T07:36:47;13.27;;;7.37;;
68108;SDS011;54893;49.864;19.084;2022-10-16T07:41:48;11.30;;;6.53;;
68108;SDS011;54893;49.864;19.084;2022-10-16T07:46:49;10.87;;;6.80;;
68108;SDS011;54893;49.864;19.084;2022-10-16T07:51:49;10.90;;;6.70;;
68108;SDS011;54893;49.864;19.084;2022-10-16T07:56:50;11.37;;;6.80;;
68108;SDS011;54893;49.864;19.084;2022-10-16T08:01:50;11.93;;;6.70;;
68108;SDS011;54893;49.864;19.084;2022-10-16T08:06:50;13.60;;;6.63;;
68108;SDS011;54893;49.864;19.084;2022-10-16T08:11:51;11.82;;;6.80;;
68108;SDS011;54893;49.864;19.084;2022-10-16T08:16:52;11.88;;;7.47;;
68108;SDS011;54893;49.864;19.084;2022-10-16T08:21:53;13.37;;;7.00;;
68108;SDS011;54893;49.864;19.084;2022-10-16T08:26:53;12.40;;;7.13;;
68108;SDS011;54893;49.864;19.084;2022-10-16T08:31:54;11.48;;;6.80;;
68108;SDS011;54893;49.864;19.084;2022-10-16T08:36:55;13.73;;;6.73;;
68108;SDS011;54893;49.864;19.084;2022-10-16T08:47:13;12.70;;;7.20;;
68108;SDS011;54893;49.864;19.084;2022-10-16T08:52:21;11.83;;;7.00;;
68108;SDS011;54893;49.864;19.084;2022-10-16T08:57:22;12.63;;;7.47;;
68108;SDS011;54893;49.864;19.084;2022-10-16T09:07:36;11.68;;;7.25;;
68108;SDS011;54893;49.864;19.084;2022-10-16T09:18:19;12.00;;;6.40;;
68108;SDS011;54893;49.864;19.084;2022-10-16T09:23:30;12.80;;;6.25;;
68108;SDS011;54893;49.864;19.084;2022-10-16T09:28:34;10.93;;;6.40;;
68108;SDS011;54893;49.864;19.084;2022-10-16T09:33:35;11.90;;;6.40;;
68108;SDS011;54893;49.864;19.084;2022-10-16T09:38:37;11.53;;;6.33;;
68108;SDS011;54893;49.864;19.084;2022-10-16T09:43:42;11.03;;;6.23;;
68108;SDS011;54893;49.864;19.084;2022-10-16T09:49:03;10.45;;;5.93;;
68108;SDS011;54893;49.864;19.084;2022-10-16T09:59:11;14.65;;;7.05;;
68108;SDS011;54893;49.864;19.084;2022-10-16T10:04:13;13.32;;;6.63;;
68108;SDS011;54893;49.864;19.084;2022-10-16T10:09:18;12.43;;;7.33;;
68108;SDS011;54893;49.864;19.084;2022-10-16T10:14:25;10.18;;;5.82;;
68108;SDS011;54893;49.864;19.084;2022-10-16T10:24:56;9.98;;;5.85;;
68108;SDS011;54893;49.864;19.084;2022-10-16T10:40:57;12.50;;;6.45;;
68108;SDS011;54893;49.864;19.084;2022-10-16T10:51:52;10.00;;;5.20;;
68108;SDS011;54893;49.864;19.084;2022-10-16T10:57:29;10.45;;;6.38;;
68108;SDS011;54893;49.864;19.084;2022-10-16T11:02:40;9.60;;;5.73;;
68108;SDS011;54893;49.864;19.084;2022-10-16T11:07:57;8.30;;;4.95;;
68108;SDS011;54893;49.864;19.084;2022-10-16T11:13:15;9.17;;;5.53;;
68108;SDS011;54893;49.864;19.084;2022-10-16T11:28:41;10.07;;;5.17;;
68108;SDS011;54893;49.864;19.084;2022-10-16T11:39:29;8.20;;;4.63;;
68108;SDS011;54893;49.864;19.084;2022-10-16T11:49:42;8.93;;;5.40;;
68108;SDS011;54893;49.864;19.084;2022-10-16T12:05:24;9.77;;;5.17;;
68108;SDS011;54893;49.864;19.084;2022-10-16T12:10:40;9.85;;;5.25;;
68108;SDS011;54893;49.864;19.084;2022-10-16T12:15:42;10.02;;;5.38;;
68108;SDS011;54893;49.864;19.084;2022-10-16T12:20:43;11.03;;;5.80;;
68108;SDS011;54893;49.864;19.084;2022-10-16T12:25:59;8.93;;;5.40;;
68108;SDS011;54893;49.864;19.084;2022-10-16T12:31:03;12.90;;;5.13;;
68108;SDS011;54893;49.864;19.084;2022-10-16T12:36:11;10.50;;;5.93;;
68108;SDS011;54893;49.864;19.084;2022-10-16T12:41:24;11.43;;;6.13;;
68108;SDS011;54893;49.864;19.084;2022-10-16T12:56:36;9.52;;;6.20;;
68108;SDS011;54893;49.864;19.084;2022-10-16T13:07:37;10.73;;;6.50;;
68108;SDS011;54893;49.864;19.084;2022-10-16T13:12:55;13.33;;;7.00;;
68108;SDS011;54893;49.864;19.084;2022-10-16T13:23:29;10.60;;;6.30;;
68108;SDS011;54893;49.864;19.084;2022-10-16T13:28:36;12.03;;;6.63;;
68108;SDS011;54893;49.864;19.084;2022-10-16T13:33:39;13.20;;;6.25;;
68108;SDS011;54893;49.864;19.084;2022-10-16T13:38:42;13.07;;;6.33;;
68108;SDS011;54893;49.864;19.084;2022-10-16T13:43:43;13.77;;;6.80;;
68108;SDS011;54893;49.864;19.084;2022-10-16T13:49:00;11.98;;;6.82;;
68108;SDS011;54893;49.864;19.084;2022-10-16T13:54:02;10.48;;;6.35;;
68108;SDS011;54893;49.864;19.084;2022-10-16T13:59:04;12.13;;;7.03;;
68108;SDS011;54893;49.864;19.084;2022-10-16T14:04:07;13.17;;;6.70;;
68108;SDS011;54893;49.864;19.084;2022-10-16T14:09:28;12.80;;;7.10;;
68108;SDS011;54893;49.864;19.084;2022-10-16T14:14:33;12.83;;;7.20;;
68108;SDS011;54893;49.864;19.084;2022-10-16T14:19:39;13.20;;;7.15;;
68108;SDS011;54893;49.864;19.084;2022-10-16T14:24:40;14.40;;;7.40;;
68108;SDS011;54893;49.864;19.084;2022-10-16T14:29:40;13.17;;;7.20;;
68108;SDS011;54893;49.864;19.084;2022-10-16T14:34:40;12.23;;;7.13;;
68108;SDS011;54893;49.864;19.084;2022-10-16T14:39:41;12.67;;;7.83;;
68108;SDS011;54893;49.864;19.084;2022-10-16T14:44:41;11.43;;;7.30;;
68108;SDS011;54893;49.864;19.084;2022-10-16T14:49:42;11.63;;;6.90;;
68108;SDS011;54893;49.864;19.084;2022-10-16T14:54:42;13.48;;;7.43;;
68108;SDS011;54893;49.864;19.084;2022-10-16T14:59:43;12.43;;;7.70;;
68108;SDS011;54893;49.864;19.084;2022-10-16T15:04:44;13.82;;;7.18;;
68108;SDS011;54893;49.864;19.084;2022-10-16T15:09:45;14.33;;;7.37;;
68108;SDS011;54893;49.864;19.084;2022-10-16T15:14:45;14.00;;;8.23;;
68108;SDS011;54893;49.864;19.084;2022-10-16T15:19:46;13.47;;;7.93;;
68108;SDS011;54893;49.864;19.084;2022-10-16T15:24:46;14.03;;;8.30;;
68108;SDS011;54893;49.864;19.084;2022-10-16T15:29:46;13.63;;;8.20;;
68108;SDS011;54893;49.864;19.084;2022-10-16T15:34:47;13.77;;;7.83;;
68108;SDS011;54893;49.864;19.084;2022-10-16T15:39:47;25.83;;;11.53;;
68108;SDS011;54893;49.864;19.084;2022-10-16T15:44:50;21.17;;;7.30;;
68108;SDS011;54893;49.864;19.084;2022-10-16T15:49:50;54.03;;;20.33;;
68108;SDS011;54893;49.864;19.084;2022-10-16T15:54:50;17.50;;;8.53;;
68108;SDS011;54893;49.864;19.084;2022-10-16T15:59:52;15.17;;;7.70;;
68108;SDS011;54893;49.864;19.084;2022-10-16T16:04:52;16.88;;;8.20;;
68108;SDS011;54893;49.864;19.084;2022-10-16T16:09:53;15.10;;;7.73;;
68108;SDS011;54893;49.864;19.084;2022-10-16T16:14:53;15.73;;;8.30;;
68108;SDS011;54893;49.864;19.084;2022-10-16T16:19:53;17.13;;;8.50;;
68108;SDS011;54893;49.864;19.084;2022-10-16T16:24:54;14.20;;;8.00;;
68108;SDS011;54893;49.864;19.084;2022-10-16T16:29:54;20.13;;;9.40;;
68108;SDS011;54893;49.864;19.084;2022-10-16T16:34:55;16.27;;;8.85;;
68108;SDS011;54893;49.864;19.084;2022-10-16T16:39:56;15.87;;;7.63;;
68108;SDS011;54893;49.864;19.084;2022-10-16T16:44:58;14.63;;;7.57;;
68108;SDS011;54893;49.864;19.084;2022-10-16T16:49:59;14.97;;;7.63;;
68108;SDS011;54893;49.864;19.084;2022-10-16T16:54:59;14.13;;;7.73;;
68108;SDS011;54893;49.864;19.084;2022-10-16T17:00:00;15.63;;;7.70;;
68108;SDS011;54893;49.864;19.084;2022-10-16T17:05:00;19.20;;;8.80;;
68108;SDS011;54893;49.864;19.084;2022-10-16T17:10:01;16.07;;;7.80;;
68108;SDS011;54893;49.864;19.084;2022-10-16T17:15:28;14.38;;;7.63;;
68108;SDS011;54893;49.864;19.084;2022-10-16T17:20:29;17.50;;;7.82;;
68108;SDS011;54893;49.864;19.084;2022-10-16T17:25:29;16.98;;;8.73;;
68108;SDS011;54893;49.864;19.084;2022-10-16T17:30:29;18.00;;;9.60;;
68108;SDS011;54893;49.864;19.084;2022-10-16T17:35:40;20.40;;;10.50;;
68108;SDS011;54893;49.864;19.084;2022-10-16T17:40:46;16.60;;;9.45;;
68108;SDS011;54893;49.864;19.084;2022-10-16T17:45:47;17.83;;;9.25;;
68108;SDS011;54893;49.864;19.084;2022-10-16T17:50:47;18.40;;;10.07;;
68108;SDS011;54893;49.864;19.084;2022-10-16T17:55:47;20.87;;;10.77;;
68108;SDS011;54893;49.864;19.084;2022-10-16T18:00:49;27.20;;;12.33;;
68108;SDS011;54893;49.864;19.084;2022-10-16T18:05:50;25.85;;;13.57;;
68108;SDS011;54893;49.864;19.084;2022-10-16T18:10:50;25.00;;;14.07;;
68108;SDS011;54893;49.864;19.084;2022-10-16T18:16:04;28.50;;;13.80;;
68108;SDS011;54893;49.864;19.084;2022-10-16T18:21:11;26.87;;;13.33;;
68108;SDS011;54893;49.864;19.084;2022-10-16T18:26:13;23.23;;;12.13;;
68108;SDS011;54893;49.864;19.084;2022-10-16T18:31:15;26.35;;;12.18;;
68108;SDS011;54893;49.864;19.084;2022-10-16T18:36:17;28.88;;;13.75;;
68108;SDS011;54893;49.864;19.084;2022-10-16T18:41:28;30.48;;;14.60;;
68108;SDS011;54893;49.864;19.084;2022-10-16T18:46:31;31.20;;;14.00;;
68108;SDS011;54893;49.864;19.084;2022-10-16T18:51:39;25.20;;;12.33;;
68108;SDS011;54893;49.864;19.084;2022-10-16T18:56:40;28.73;;;13.20;;
68108;SDS011;54893;49.864;19.084;2022-10-16T19:01:41;25.67;;;12.07;;
68108;SDS011;54893;49.864;19.084;2022-10-16T19:06:43;25.45;;;12.10;;
68108;SDS011;54893;49.864;19.084;2022-10-16T19:11:45;23.03;;;10.90;;
68108;SDS011;54893;49.864;19.084;2022-10-16T19:16:46;22.57;;;11.23;;
68108;SDS011;54893;49.864;19.084;2022-10-16T19:21:47;23.35;;;10.68;;
68108;SDS011;54893;49.864;19.084;2022-10-16T19:26:54;20.53;;;9.83;;
68108;SDS011;54893;49.864;19.084;2022-10-16T19:31:56;18.20;;;10.00;;
68108;SDS011;54893;49.864;19.084;2022-10-16T19:36:57;19.75;;;10.07;;
68108;SDS011;54893;49.864;19.084;2022-10-16T19:41:58;20.07;;;9.90;;
68108;SDS011;54893;49.864;19.084;2022-10-16T19:46:58;19.80;;;10.25;;
68108;SDS011;54893;49.864;19.084;2022-10-16T19:51:58;18.80;;;10.20;;
68108;SDS011;54893;49.864;19.084;2022-10-16T19:56:59;19.57;;;9.80;;
68108;SDS011;54893;49.864;19.084;2022-10-16T20:02:00;22.15;;;9.05;;
68108;SDS011;54893;49.864;19.084;2022-10-16T20:07:01;19.70;;;9.67;;
68108;SDS011;54893;49.864;19.084;2022-10-16T20:12:01;19.40;;;9.10;;
68108;SDS011;54893;49.864;19.084;2022-10-16T20:17:02;17.95;;;8.82;;
68108;SDS011;54893;49.864;19.084;2022-10-16T20:22:03;20.93;;;9.43;;
68108;SDS011;54893;49.864;19.084;2022-10-16T20:27:03;18.40;;;9.13;;
68108;SDS011;54893;49.864;19.084;2022-10-16T20:32:04;17.23;;;9.27;;
68108;SDS011;54893;49.864;19.084;2022-10-16T20:37:04;18.03;;;9.07;;
68108;SDS011;54893;49.864;19.084;2022-10-16T20:42:04;17.37;;;9.00;;
68108;SDS011;54893;49.864;19.084;2022-10-16T20:47:05;18.33;;;8.90;;
68108;SDS011;54893;49.864;19.084;2022-10-16T20:52:05;16.40;;;8.65;;
68108;SDS011;54893;49.864;19.084;2022-10-16T20:57:05;17.33;;;9.03;;
68108;SDS011;54893;49.864;19.084;2022-10-16T21:02:06;18.83;;;9.03;;
68108;SDS011;54893;49.864;19.084;2022-10-16T21:07:06;19.98;;;10.02;;
68108;SDS011;54893;49.864;19.084;2022-10-16T21:12:07;17.77;;;9.43;;
68108;SDS011;54893;49.864;19.084;2022-10-16T21:17:07;18.33;;;8.93;;
68108;SDS011;54893;49.864;19.084;2022-10-16T21:22:08;17.93;;;8.70;;
68108;SDS011;54893;49.864;19.084;2022-10-16T21:27:08;18.73;;;8.27;;
68108;SDS011;54893;49.864;19.084;2022-10-16T21:32:08;17.60;;;8.70;;
68108;SDS011;54893;49.864;19.084;2022-10-16T21:37:09;16.83;;;8.37;;
68108;SDS011;54893;49.864;19.084;2022-10-16T21:42:09;17.10;;;7.47;;
68108;SDS011;54893;49.864;19.084;2022-10-16T21:47:09;16.27;;;8.20;;
68108;SDS011;54893;49.864;19.084;2022-10-16T21:52:10;16.93;;;8.27;;
68108;SDS011;54893;49.864;19.084;2022-10-16T21:57:11;15.87;;;7.73;;
68108;SDS011;54893;49.864;19.084;2022-10-16T22:02:11;17.63;;;8.67;;
68108;SDS011;54893;49.864;19.084;2022-10-16T22:07:12;18.33;;;8.87;;
68108;SDS011;54893;49.864;19.084;2022-10-16T22:12:12;18.07;;;9.03;;
68108;SDS011;54893;49.864;19.084;2022-10-16T22:17:18;16.88;;;8.82;;
68108;SDS011;54893;49.864;19.084;2022-10-16T22:22:18;19.57;;;9.20;;
68108;SDS011;54893;49.864;19.084;2022-10-16T22:27:19;24.50;;;13.00;;
68108;SDS011;54893;49.864;19.084;2022-10-16T22:32:19;24.03;;;12.63;;
68108;SDS011;54893;49.864;19.084;2022-10-16T22:37:19;23.00;;;11.77;;
68108;SDS011;54893;49.864;19.084;2022-10-16T22:42:20;21.60;;;11.40;;
68108;SDS011;54893;49.864;19.084;2022-10-16T22:47:20;25.83;;;12.17;;
68108;SDS011;54893;49.864;19.084;2022-10-16T22:52:20;27.37;;;12.97;;
68108;SDS011;54893;49.864;19.084;2022-10-16T22:57:21;29.07;;;14.33;;
68108;SDS011;54893;49.864;19.084;2022-10-16T23:02:21;29.47;;;13.80;;
68108;SDS011;54893;49.864;19.084;2022-10-16T23:07:22;32.83;;;14.50;;
68108;SDS011;54893;49.864;19.084;2022-10-16T23:12:22;36.75;;;15.70;;
68108;SDS011;54893;49.864;19.084;2022-10-16T23:17:24;31.47;;;15.73;;
68108;SDS011;54893;49.864;19.084;2022-10-16T23:22:25;33.60;;;15.50;;
68108;SDS011;54893;49.864;19.084;2022-10-16T23:27:25;44.60;;;18.02;;
68108;SDS011;54893;49.864;19.084;2022-10-16T23:32:26;36.87;;;15.53;;
68108;SDS011;54893;49.864;19.084;2022-10-16T23:37:26;38.60;;;16.20;;
68108;SDS011;54893;49.864;19.084;2022-10-16T23:42:26;34.45;;;14.63;;
68108;SDS011;54893;49.864;19.084;2022-10-16T23:47:27;28.70;;;13.40;;
68108;SDS011;54893;49.864;19.084;2022-10-16T23:52:27;26.27;;;11.83;;
68108;SDS011;54893;49.864;19.084;2022-10-16T23:57:27;20.83;;;10.20;;
